Airfield :
LOGIN :

Register | Disclaimer

   EN    FR    IT 

 










Legend :    VFR   Marginal VFR   IFR   Intensive IFR   Very Intensive IFR
Visi :
Ceiling :
>= 8 km
>= 3000ft
5 to 8 km
1000 to 3000 ft
1500m to 5 km
500 to 1000 ft
800 to 1500m
200 to 500 ft
< 800m
< 200 ft
Symbols :   Thunderstorms  Fog  Heavy snow  Heavy precipitations  Wind > 20 kt
SIGMETs :     Misc.  Thunderstorms  Icing  Turbulence  Mountain Waves  Volcanic Ashes






- Airport Elevation : 876 ft
- IATA code : MBX


LJMB - Maribor

CURRENT METAR :
  • 090900Z 34004KT 300V360 9999 SCT017 BKN030 03/01 Q1008 R32/CLRD//

EXPIRED METARs :
  • 090830Z 35004KT 330V030 9999 SCT017 BKN030 02/00 Q1008
  • 090800Z 31003KT 9999 SCT017 BKN030 02/M00 Q1008
  • 090730Z 34004KT 310V010 9999 FEW010 01/M01 Q1008
  • 090700Z 32003KT 250V350 9999 FEW010 M01/M02 Q1008

TAF TAF LJMB
Valid from the 09 at 09:00 until the 10 at 09:00 UTC


090800Z 0909/1009 01005KT 9999 SCT035 BKN060
BECMG 0910/0913 -RA BKN035
TEMPO 0912/0924 36010KT 7000 RA BKN025 OVC050
PROB30
TEMPO 0916/0921 5000 RASN BR BKN015 OVC030
BECMG 1003/1006 NSW FEW020 SCT090
TEMPO 1003/1009 01015KT



MET'MAP, your aeronautical weather chart ! - Copyright ORBIFLY December 2007 - Disclaimer

ORBIFLY MET'MAP TEAM :

Programming & Development : Alexandra Zaïnal
Concept & original design : Baudouin d'Aumeries
Assistance for programming : Marc-Olivier Méhu
Technical & hardware support : Manuel Goepfert

Contact : metmap@orbifly.com




SOURCES & CREDITS :

   NOAA